Terminal Aerodrome Forecast
Issued by NWS Blacksburg, VA

Home | Current Version | Previous Version | Text Only | Print | Product List | Glossary On
Versions: 1 2 3 4 5 6 7 8 9 10 11 12 13 14 15 16 17 18 19 20 21 22 23 24 25 26
254
FTUS41 KRNK 210520
TAFDAN
TAF
KDAN 210520Z 2106/2206 00000KT 1SM BR OVC002
     FM211400 14004KT 4SM BR BKN025 OVC250
     FM212100 13004KT 5SM -SHRA BR OVC023
     FM220200 00000KT 2SM BR OVC004=

USA.gov is the U.S. government's official web portal to all federal, state and local government web resources and services.